createdAt,value
2024-04-18T00:01:14.922Z,10.73
2024-04-18T00:03:41.944Z,10.56
2024-04-18T00:06:08.758Z,10.58
2024-04-18T00:08:35.507Z,10.26
2024-04-18T00:11:22.261Z,10.52
2024-04-18T00:13:49.049Z,10.64
2024-04-18T00:16:35.349Z,10.73
2024-04-18T00:19:18.339Z,10.80
2024-04-18T00:22:00.971Z,10.71
2024-04-18T00:24:30.794Z,10.74
2024-04-18T00:26:57.657Z,10.73
2024-04-18T00:29:36.641Z,10.68
2024-04-18T00:32:12.646Z,10.79
2024-04-18T00:34:59.681Z,10.74
2024-04-18T00:37:35.681Z,10.76
2024-04-18T00:40:02.485Z,10.79
2024-04-18T00:42:41.549Z,10.81
2024-04-18T00:45:08.552Z,10.84
2024-04-18T00:47:49.755Z,10.50
2024-04-18T00:50:17.820Z,10.82
2024-04-18T00:52:46.750Z,10.78
2024-04-18T00:55:28.593Z,10.81
2024-04-18T00:58:12.226Z,10.84
2024-04-18T01:00:43.142Z,10.72
2024-04-18T01:03:29.610Z,10.71
2024-04-18T01:06:10.203Z,10.68
2024-04-18T01:08:56.087Z,10.68
2024-04-18T01:11:32.424Z,10.70
2024-04-18T01:14:12.274Z,10.74
2024-04-18T01:16:57.807Z,10.63
2024-04-18T01:19:24.572Z,10.66
2024-04-18T01:21:52.040Z,10.72
2024-04-18T01:24:19.814Z,10.75
2024-04-18T01:26:46.829Z,10.72
2024-04-18T01:29:13.673Z,10.65
2024-04-18T01:31:59.049Z,10.61
2024-04-18T01:34:25.967Z,10.68
2024-04-18T01:37:14.600Z,10.70
2024-04-18T01:39:43.232Z,10.81
2024-04-18T01:42:10.049Z,10.76
2024-04-18T01:44:46.476Z,10.81
2024-04-18T01:47:32.115Z,10.93
2024-04-18T01:50:09.007Z,10.83
2024-04-18T01:52:39.640Z,10.84
2024-04-18T01:55:08.007Z,10.79
2024-04-18T01:57:38.824Z,10.60
2024-04-18T02:00:33.366Z,10.67
2024-04-18T02:03:00.222Z,10.42
2024-04-18T02:05:42.926Z,10.46
2024-04-18T02:08:16.157Z,10.76
2024-04-18T02:10:46.527Z,10.79
2024-04-18T02:13:36.698Z,10.75
2024-04-18T02:16:04.772Z,10.69
2024-04-18T02:19:06.800Z,10.30
2024-04-18T02:21:53.671Z,10.57
2024-04-18T02:24:33.324Z,10.57
2024-04-18T02:27:00.106Z,10.67
2024-04-18T02:29:26.823Z,10.71
2024-04-18T02:31:59.376Z,10.73
2024-04-18T02:34:32.134Z,10.72
2024-04-18T02:37:18.938Z,10.68
2024-04-18T02:39:45.737Z,10.61
2024-04-18T02:42:24.119Z,10.55
2024-04-18T02:45:01.187Z,10.64
2024-04-18T02:47:28.296Z,10.62
2024-04-18T02:50:21.358Z,10.59
2024-04-18T02:52:48.116Z,10.68
2024-04-18T02:55:14.936Z,10.70
2024-04-18T02:57:54.944Z,10.68
2024-04-18T03:00:21.773Z,10.72
2024-04-18T03:03:08.098Z,10.74
2024-04-18T03:05:34.819Z,10.78
2024-04-18T03:08:01.607Z,10.76
2024-04-18T03:10:54.211Z,10.80
2024-04-18T03:13:39.448Z,10.83
2024-04-18T03:16:26.140Z,10.79
2024-04-18T03:18:52.976Z,10.83
2024-04-18T03:21:19.931Z,10.84
2024-04-18T03:23:46.683Z,10.89
2024-04-18T03:26:33.343Z,10.89
2024-04-18T03:29:00.158Z,10.90
2024-04-18T03:31:26.871Z,10.88
2024-04-18T03:33:53.746Z,10.81
2024-04-18T03:36:20.557Z,10.89
2024-04-18T03:38:54.427Z,10.82
2024-04-18T03:41:21.286Z,10.84
2024-04-18T03:44:08.331Z,10.93
2024-04-18T03:46:37.172Z,11.00
2024-04-18T03:49:04.391Z,10.97
2024-04-18T03:51:31.891Z,11.01
2024-04-18T03:54:24.626Z,11.08
2024-04-18T03:56:51.396Z,11.12
2024-04-18T03:59:18.147Z,11.16
2024-04-18T04:01:44.982Z,11.15
2024-04-18T04:04:11.823Z,11.13
2024-04-18T04:06:38.905Z,11.21
2024-04-18T04:09:05.680Z,11.26
2024-04-18T04:11:32.452Z,11.28
2024-04-18T04:14:00.999Z,11.30
2024-04-18T04:16:48.093Z,11.28
2024-04-18T04:19:18.202Z,11.25
2024-04-18T04:21:48.357Z,11.33
2024-04-18T04:24:15.287Z,11.31
2024-04-18T04:26:51.755Z,11.33
2024-04-18T04:29:19.124Z,11.31
2024-04-18T04:31:45.943Z,11.35
2024-04-18T04:34:13.639Z,11.38
2024-04-18T04:36:40.462Z,11.40
2024-04-18T04:39:07.265Z,11.40
2024-04-18T04:41:40.644Z,11.42
2024-04-18T04:44:07.408Z,11.44
2024-04-18T04:46:52.687Z,11.43
2024-04-18T04:49:22.710Z,11.43
2024-04-18T04:52:05.208Z,11.41
2024-04-18T04:54:45.255Z,11.39
2024-04-18T04:57:12.596Z,11.39
2024-04-18T04:59:39.735Z,11.41
2024-04-18T05:02:06.673Z,11.37
2024-04-18T05:04:50.010Z,11.35
2024-04-18T05:07:32.802Z,11.35
2024-04-18T05:10:18.968Z,11.33
2024-04-18T05:12:45.895Z,11.40
2024-04-18T05:15:32.691Z,11.42
2024-04-18T05:17:59.505Z,11.44
2024-04-18T05:20:26.305Z,11.48
2024-04-18T05:22:53.041Z,11.49
2024-04-18T05:25:19.865Z,11.53
2024-04-18T05:27:56.718Z,11.57
2024-04-18T05:30:53.974Z,11.53
2024-04-18T05:33:20.892Z,11.50
2024-04-18T05:35:48.275Z,11.50
2024-04-18T05:38:15.011Z,11.45
2024-04-18T05:40:41.794Z,11.53
2024-04-18T05:43:08.787Z,11.43
2024-04-18T05:45:48.688Z,11.48
2024-04-18T05:48:15.585Z,11.56
2024-04-18T05:50:42.975Z,11.54
2024-04-18T05:53:20.729Z,11.41
2024-04-18T05:55:56.527Z,11.52
2024-04-18T05:58:23.324Z,11.63
2024-04-18T06:00:57.462Z,11.76
2024-04-18T06:03:25.669Z,11.83
2024-04-18T06:05:53.883Z,11.52
2024-04-18T06:08:20.574Z,11.88
2024-04-18T06:10:47.560Z,11.94
2024-04-18T06:13:26.979Z,11.94
2024-04-18T06:15:54.536Z,11.95
2024-04-18T06:18:21.452Z,12.04
2024-04-18T06:20:52.535Z,11.99
2024-04-18T06:23:19.455Z,12.09
2024-04-18T06:26:06.207Z,12.12
2024-04-18T06:28:33.408Z,12.22
2024-04-18T06:31:00.330Z,12.36
2024-04-18T06:33:30.929Z,12.69
2024-04-18T06:35:59.379Z,13.02
2024-04-18T06:38:26.406Z,13.08
2024-04-18T06:40:53.136Z,13.31
2024-04-18T06:43:23.562Z,13.41
2024-04-18T06:45:51.694Z,13.37
2024-04-18T06:48:18.487Z,13.28
2024-04-18T06:50:45.760Z,13.25
2024-04-18T06:53:12.619Z,13.25
2024-04-18T06:55:39.613Z,13.30
2024-04-18T06:58:06.419Z,13.65
2024-04-18T07:00:34.179Z,14.04
2024-04-18T07:03:01.095Z,14.26
2024-04-18T07:05:46.739Z,14.37
2024-04-18T07:08:25.423Z,14.78
2024-04-18T07:10:53.183Z,15.29
2024-04-18T07:13:29.495Z,15.62
2024-04-18T07:16:00.553Z,15.52
2024-04-18T07:18:46.143Z,15.93
2024-04-18T07:21:15.493Z,15.71
2024-04-18T07:23:42.467Z,15.66
2024-04-18T07:26:09.230Z,15.64
2024-04-18T07:28:36.124Z,15.86
2024-04-18T07:31:02.983Z,16.21
2024-04-18T07:33:29.949Z,16.36
2024-04-18T07:35:58.720Z,16.53
2024-04-18T07:38:25.982Z,16.52
2024-04-18T07:40:52.708Z,16.43
2024-04-18T07:43:19.703Z,16.44
2024-04-18T07:45:46.440Z,16.46
2024-04-18T07:48:13.620Z,16.34
2024-04-18T07:50:40.816Z,16.09
2024-04-18T07:53:10.022Z,16.14
2024-04-18T07:55:37.556Z,16.11
2024-04-18T07:58:05.201Z,15.98
2024-04-18T08:00:34.181Z,15.94
2024-04-18T08:03:04.262Z,15.98
2024-04-18T08:05:34.957Z,16.07
2024-04-18T08:08:06.645Z,16.04
2024-04-18T08:10:45.979Z,16.03
2024-04-18T08:13:27.017Z,15.91
2024-04-18T08:18:28.668Z,15.49
2024-04-18T08:20:57.774Z,15.42
2024-04-18T08:23:24.834Z,15.55
2024-04-18T08:25:51.725Z,15.75
2024-04-18T08:28:18.542Z,15.65
2024-04-18T08:30:46.137Z,15.71
2024-04-18T08:33:13.450Z,15.81
2024-04-18T08:35:40.283Z,15.90
2024-04-18T08:38:09.655Z,15.86
2024-04-18T08:40:37.554Z,15.77
2024-04-18T08:43:04.691Z,15.97
2024-04-18T08:45:37.343Z,16.13
2024-04-18T08:48:06.928Z,16.25
2024-04-18T08:50:35.699Z,16.26
2024-04-18T08:53:05.565Z,16.49
2024-04-18T08:55:34.195Z,16.59
2024-04-18T08:58:05.643Z,16.80
2024-04-18T09:00:34.503Z,16.85
2024-04-18T09:03:03.031Z,16.70
2024-04-18T09:05:29.923Z,16.46
2024-04-18T09:07:56.738Z,16.14
2024-04-18T09:10:24.793Z,15.77
2024-04-18T09:12:55.596Z,15.53
2024-04-18T09:15:23.967Z,15.36
2024-04-18T09:18:17.554Z,15.25
2024-04-18T09:20:44.815Z,15.31
2024-04-18T09:23:11.577Z,15.29
2024-04-18T09:25:40.015Z,15.29
2024-04-18T09:28:07.786Z,15.25
2024-04-18T09:30:37.102Z,15.29
2024-04-18T09:33:07.414Z,15.38
2024-04-18T09:35:36.766Z,15.55
2024-04-18T09:38:10.189Z,15.98
2024-04-18T09:40:42.261Z,15.81
2024-04-18T09:43:38.097Z,16.23
2024-04-18T09:46:07.272Z,16.21
2024-04-18T09:48:35.041Z,16.25
2024-04-18T09:51:04.192Z,16.17
2024-04-18T09:53:31.453Z,16.33
2024-04-18T09:55:59.936Z,16.51
2024-04-18T09:58:28.493Z,16.20
2024-04-18T10:00:57.583Z,16.63
2024-04-18T10:03:25.728Z,16.43
2024-04-18T10:05:55.558Z,16.70
2024-04-18T10:08:25.855Z,16.77
2024-04-18T10:10:53.643Z,16.81
2024-04-18T10:13:26.838Z,16.86
2024-04-18T10:16:04.886Z,16.97
2024-04-18T10:18:39.035Z,16.91
2024-04-18T10:21:33.450Z,16.86
2024-04-18T10:24:10.886Z,16.87
2024-04-18T10:26:38.981Z,16.73
2024-04-18T10:29:21.473Z,16.73
2024-04-18T10:31:48.284Z,16.57
2024-04-18T10:34:15.346Z,16.32
2024-04-18T10:36:43.622Z,16.20
2024-04-18T10:39:10.544Z,16.40
2024-04-18T10:41:46.458Z,16.70
2024-04-18T10:44:13.371Z,17.00
2024-04-18T10:46:40.289Z,17.23
2024-04-18T10:49:07.618Z,17.33
2024-04-18T10:51:35.389Z,17.23
2024-04-18T10:54:02.346Z,16.96
2024-04-18T10:56:30.211Z,15.70
2024-04-18T10:58:57.559Z,16.44
2024-04-18T11:01:24.455Z,16.33
2024-04-18T11:03:54.758Z,16.19
2024-04-18T11:06:21.931Z,16.19
2024-04-18T11:08:53.052Z,16.29
2024-04-18T11:11:25.391Z,16.40
2024-04-18T11:13:52.215Z,16.56
2024-04-18T11:16:19.102Z,16.45
2024-04-18T11:18:47.124Z,16.34
2024-04-18T11:21:15.535Z,16.47
2024-04-18T11:23:47.331Z,16.84
2024-04-18T11:26:19.300Z,16.89
2024-04-18T11:28:50.259Z,17.07
2024-04-18T11:31:17.104Z,17.19
2024-04-18T11:33:44.638Z,17.07
2024-04-18T11:36:11.787Z,16.94
2024-04-18T11:38:41.116Z,16.80
2024-04-18T11:41:07.980Z,16.86
2024-04-18T11:43:34.949Z,17.10
2024-04-18T11:46:01.929Z,17.27
2024-04-18T11:48:28.917Z,17.43
2024-04-18T11:50:55.833Z,17.72
2024-04-18T11:53:22.718Z,17.78
2024-04-18T11:55:50.190Z,17.80
2024-04-18T11:58:26.272Z,17.95
2024-04-18T12:00:53.022Z,18.02
2024-04-18T12:03:37.967Z,18.12
2024-04-18T12:06:24.976Z,18.20
2024-04-18T12:08:54.720Z,18.26
2024-04-18T12:11:29.920Z,18.41
2024-04-18T12:14:13.399Z,18.55
2024-04-18T12:16:56.438Z,18.59
2024-04-18T12:19:42.852Z,18.19
2024-04-18T12:22:31.183Z,17.84
2024-04-18T12:25:17.390Z,17.51
2024-04-18T12:27:44.499Z,17.25
2024-04-18T12:30:30.737Z,17.16
2024-04-18T12:33:17.109Z,17.27
2024-04-18T12:35:44.171Z,17.41
2024-04-18T12:38:10.921Z,17.64
2024-04-18T12:40:44.409Z,17.24
2024-04-18T12:43:17.393Z,17.61
2024-04-18T12:46:06.528Z,17.78
2024-04-18T12:48:53.664Z,18.01
2024-04-18T12:51:20.533Z,17.83
2024-04-18T12:53:47.441Z,17.09
2024-04-18T12:56:14.561Z,16.30
2024-04-18T12:58:44.329Z,15.77
2024-04-18T13:01:12.419Z,15.28
2024-04-18T13:03:40.168Z,15.37
2024-04-18T13:06:28.483Z,15.47
2024-04-18T13:08:57.210Z,15.66
2024-04-18T13:11:42.838Z,15.73
2024-04-18T13:14:10.859Z,15.65
2024-04-18T13:16:37.803Z,15.37
2024-04-18T13:19:11.229Z,15.22
2024-04-18T13:21:38.538Z,15.24
2024-04-18T13:24:09.844Z,15.34
2024-04-18T13:26:52.505Z,15.22
2024-04-18T13:29:20.385Z,15.03
2024-04-18T13:31:47.901Z,14.62
2024-04-18T13:34:21.723Z,14.42
2024-04-18T13:36:49.063Z,14.32
2024-04-18T13:39:17.170Z,14.27
2024-04-18T13:42:04.201Z,14.54
2024-04-18T13:44:52.735Z,14.83
2024-04-18T13:47:22.319Z,15.21
2024-04-18T13:49:49.118Z,15.46
2024-04-18T13:52:16.487Z,15.61
2024-04-18T13:55:03.302Z,15.59
2024-04-18T13:57:33.553Z,15.56
2024-04-18T14:00:19.444Z,15.72
2024-04-18T14:03:09.169Z,15.63
2024-04-18T14:05:56.022Z,15.47
2024-04-18T14:08:36.161Z,15.56
2024-04-18T14:11:21.527Z,15.80
2024-04-18T14:14:04.809Z,15.89
2024-04-18T14:16:50.365Z,16.07
2024-04-18T14:19:32.720Z,16.19
2024-04-18T14:22:09.080Z,16.23
2024-04-18T14:24:36.814Z,16.29
2024-04-18T14:27:04.093Z,16.18
2024-04-18T14:29:30.951Z,15.94
2024-04-18T14:32:00.805Z,15.63
2024-04-18T14:34:47.352Z,15.35
2024-04-18T14:37:14.174Z,15.46
2024-04-18T14:39:40.987Z,15.63
2024-04-18T14:42:07.807Z,15.65
2024-04-18T14:44:34.608Z,15.62
2024-04-18T14:47:15.263Z,15.68
2024-04-18T14:50:01.280Z,15.68
2024-04-18T14:52:34.046Z,15.68
2024-04-18T14:55:01.098Z,15.71
2024-04-18T14:57:34.126Z,15.75
2024-04-18T15:00:19.620Z,15.74
2024-04-18T15:02:46.779Z,15.91
2024-04-18T15:05:36.471Z,15.95
2024-04-18T15:08:03.276Z,16.04
2024-04-18T15:10:49.123Z,16.08
2024-04-18T15:13:15.952Z,16.01
2024-04-18T15:15:43.955Z,16.02
2024-04-18T15:18:12.608Z,16.07
2024-04-18T15:20:39.789Z,16.04
2024-04-18T15:23:12.830Z,16.05
2024-04-18T15:25:39.567Z,16.07
2024-04-18T15:28:06.835Z,16.00
2024-04-18T15:30:33.840Z,16.09
2024-04-18T15:33:23.627Z,16.11
2024-04-18T15:35:53.233Z,16.07
2024-04-18T15:38:20.078Z,15.98
2024-04-18T15:41:05.883Z,15.94
2024-04-18T15:43:35.448Z,15.84
2024-04-18T15:46:04.330Z,15.70
2024-04-18T15:48:31.324Z,15.66
2024-04-18T15:50:58.597Z,15.62
2024-04-18T15:53:31.793Z,15.43
2024-04-18T15:56:08.365Z,15.27
2024-04-18T15:58:53.884Z,15.07
2024-04-18T16:01:22.465Z,14.87
2024-04-18T16:04:08.041Z,14.70
2024-04-18T16:06:53.803Z,14.61
2024-04-18T16:09:40.855Z,14.49
2024-04-18T16:12:19.802Z,14.51
2024-04-18T16:14:59.676Z,14.46
2024-04-18T16:17:26.525Z,14.43
2024-04-18T16:20:15.470Z,14.45
2024-04-18T16:22:43.339Z,14.46
2024-04-18T16:25:28.894Z,13.55
2024-04-18T16:27:55.781Z,14.39
2024-04-18T16:30:22.690Z,14.47
2024-04-18T16:32:49.646Z,14.48
2024-04-18T16:35:16.646Z,14.49
2024-04-18T16:38:06.619Z,14.40
2024-04-18T16:40:50.035Z,14.36
2024-04-18T16:43:38.038Z,14.34
2024-04-18T16:46:05.584Z,14.33
2024-04-18T16:48:32.412Z,13.23
2024-04-18T16:50:59.186Z,14.21
2024-04-18T16:53:45.910Z,14.09
2024-04-18T16:56:15.678Z,14.05
2024-04-18T16:58:54.973Z,13.94
2024-04-18T17:01:22.450Z,13.88
2024-04-18T17:03:50.194Z,13.78
2024-04-18T17:06:41.977Z,13.75
2024-04-18T17:09:14.548Z,13.66
2024-04-18T17:11:41.331Z,13.60
2024-04-18T17:14:28.003Z,13.57
2024-04-18T17:16:54.806Z,13.49
2024-04-18T17:19:21.726Z,13.47
2024-04-18T17:21:48.679Z,13.38
2024-04-18T17:24:15.651Z,13.37
2024-04-18T17:27:00.892Z,13.05
2024-04-18T17:29:27.708Z,13.20
2024-04-18T17:31:54.454Z,13.19
2024-04-18T17:34:21.214Z,13.18
2024-04-18T17:36:48.539Z,13.19
2024-04-18T17:39:35.260Z,13.11
2024-04-18T17:42:03.660Z,13.14
2024-04-18T17:44:50.690Z,13.00
2024-04-18T17:47:28.661Z,13.01
2024-04-18T17:49:56.021Z,12.94
2024-04-18T17:52:25.741Z,12.93
2024-04-18T17:54:55.090Z,12.91
2024-04-18T17:57:23.700Z,12.78
2024-04-18T18:00:13.136Z,12.76
2024-04-18T18:02:41.196Z,12.73
2024-04-18T18:05:08.002Z,12.75
2024-04-18T18:07:38.082Z,12.70
2024-04-18T18:10:07.043Z,12.63
2024-04-18T18:12:34.544Z,12.57
2024-04-18T18:15:01.685Z,12.41
2024-04-18T18:17:33.049Z,12.36
2024-04-18T18:19:59.942Z,12.37
2024-04-18T18:22:46.677Z,12.30
2024-04-18T18:25:13.526Z,12.27
2024-04-18T18:27:40.341Z,12.24
2024-04-18T18:30:27.127Z,12.22
2024-04-18T18:32:53.973Z,12.23
2024-04-18T18:35:20.767Z,12.20
2024-04-18T18:37:49.553Z,12.10
2024-04-18T18:40:20.765Z,12.16
2024-04-18T18:42:47.705Z,12.16
2024-04-18T18:45:14.866Z,12.12
2024-04-18T18:47:41.755Z,12.07
2024-04-18T18:50:18.650Z,12.06
2024-04-18T18:52:45.445Z,11.96
2024-04-18T18:55:33.535Z,11.90
2024-04-18T18:58:02.152Z,11.87
2024-04-18T19:00:30.879Z,11.88
2024-04-18T19:03:10.485Z,11.90
2024-04-18T19:05:49.593Z,11.86
2024-04-18T19:08:16.503Z,11.75
2024-04-18T19:10:52.582Z,11.82
2024-04-18T19:13:19.416Z,11.72
2024-04-18T19:16:01.859Z,11.60
2024-04-18T19:18:28.736Z,11.69
2024-04-18T19:20:56.482Z,11.62
2024-04-18T19:23:39.609Z,11.69
2024-04-18T19:26:08.065Z,11.60
2024-04-18T19:28:34.932Z,11.10
2024-04-18T19:31:03.039Z,11.63
2024-04-18T19:33:29.992Z,11.60
2024-04-18T19:35:56.899Z,11.53
2024-04-18T20:49:45.699Z,11.17
2024-04-18T20:52:12.519Z,11.18
2024-04-18T20:54:48.840Z,11.28
2024-04-18T20:57:15.705Z,11.23
2024-04-18T20:59:42.691Z,11.24
2024-04-18T21:02:09.571Z,11.21
2024-04-18T21:04:36.366Z,11.09
2024-04-18T21:07:04.266Z,11.03
2024-04-18T21:09:31.097Z,10.86
2024-04-18T21:11:58.423Z,10.93
2024-04-18T21:14:25.174Z,10.88
2024-04-18T21:16:51.939Z,10.97
2024-04-18T21:19:21.634Z,10.96
2024-04-18T21:21:49.194Z,10.92
2024-04-18T21:24:16.835Z,10.92
2024-04-18T21:26:47.314Z,10.80
2024-04-18T21:29:16.252Z,10.74
2024-04-18T21:31:43.101Z,10.71
2024-04-18T21:34:12.009Z,10.67
2024-04-18T21:36:39.111Z,10.72
2024-04-18T21:39:05.947Z,10.47
2024-04-18T21:41:32.762Z,10.64
2024-04-18T21:43:59.650Z,10.65
2024-04-18T21:46:27.142Z,10.59
2024-04-18T21:48:53.958Z,10.58
2024-04-18T21:51:20.907Z,10.64
2024-04-18T21:53:47.759Z,10.57
2024-04-18T21:56:14.704Z,10.57
2024-04-18T21:58:41.521Z,10.63
2024-04-18T22:01:28.323Z,10.24
2024-04-18T22:03:56.388Z,10.72
2024-04-18T22:06:23.399Z,10.70
2024-04-18T22:08:50.303Z,10.65
2024-04-18T22:11:17.268Z,10.57
2024-04-18T22:13:44.183Z,10.70
2024-04-18T22:16:11.154Z,10.72
2024-04-18T22:18:38.273Z,10.63
2024-04-18T22:21:05.557Z,10.65
2024-04-18T22:23:32.676Z,10.60
2024-04-18T22:25:59.637Z,10.52
2024-04-18T22:28:26.565Z,10.54
2024-04-18T22:31:02.928Z,10.64
2024-04-18T22:33:29.891Z,10.63
2024-04-18T22:35:57.453Z,10.64
2024-04-18T22:38:24.345Z,10.47
2024-04-18T22:40:51.886Z,10.66
2024-04-18T22:43:20.374Z,10.63
2024-04-18T22:45:47.374Z,10.51
2024-04-18T22:48:14.510Z,10.17
2024-04-18T22:50:45.071Z,10.48
2024-04-18T22:53:12.288Z,10.51
2024-04-18T22:55:39.200Z,10.49
2024-04-18T22:58:08.239Z,10.41
2024-04-18T23:00:39.291Z,10.45
2024-04-18T23:03:07.580Z,10.37
2024-04-18T23:05:38.618Z,9.79
2024-04-18T23:08:06.015Z,10.21
2024-04-18T23:10:33.366Z,10.22
2024-04-18T23:13:00.402Z,10.03
2024-04-18T23:15:45.586Z,10.03
2024-04-18T23:18:12.731Z,9.66
2024-04-18T23:20:39.866Z,9.93
2024-04-18T23:23:06.807Z,9.87
2024-04-18T23:25:33.710Z,9.81
2024-04-18T23:28:00.620Z,9.76
2024-04-18T23:30:27.619Z,9.72
2024-04-18T23:32:54.643Z,9.78
2024-04-18T23:35:21.582Z,9.85
2024-04-18T23:37:48.540Z,9.81
2024-04-18T23:40:15.434Z,9.73
2024-04-18T23:42:42.410Z,9.80
2024-04-18T23:45:09.376Z,9.82
2024-04-18T23:47:36.348Z,9.76
2024-04-18T23:50:03.576Z,9.88
2024-04-18T23:52:30.467Z,9.83
2024-04-18T23:54:57.351Z,9.72
2024-04-18T23:57:25.912Z,9.83
2024-04-18T23:59:52.946Z,9.81
